Cottonwd Hgts, Utah
Current Conditions -  °F | °C
As of 11:13 AM on Monday 22 Dec 2014 (Local Time) from KSLC Reporting Station
Broken Clouds Broken Clouds  
Wind Chill: 41°   Ceiling: 1600
Heat Index: 41°   Visibility: 10mi
Dew Point: 37°   Wind: 3mph
Humidity: 86%   Direction: 10°N
Pressure: 29.96"   Gusts: NA
Location:  40.615°N, 111.891°W
Report Text: KSLC 221813Z 01003KT 10SM BKN016 BKN024 BKN040 05/03 A2996 RMK AO2 SH DSNT NE AND SW T00500028
Loading
Personal Weather Stations






























Interactive Weather Map New forecast layout! Learn more

10-Day Weather Forecast

Advertisements
Track Severe Weather on mobile